LIMZ/CUF METAR and TAF weather

Enter ICAO airport designator
Station Type Date Time Source
LIMZ METAR 2020/11/25 22:20 UTC NOAA

LIMZ 252220Z AUTO 24005KT 190V260 9999 NCD M02/M03 Q1024


Station Type Date Time Source
LIMZ Decoded METAR 2020/11/25 22:20 UTC NOAA

Cuneo / Levaldigi, Italy (LIMZ) 44-32-47N 007-37-20E
Nov 25, 2020 - 05:20 PM EST / 2020.11.25 2220 UTC
Wind: from the WSW (240 degrees) at 6 MPH (5 KT) (direction variable):0
Visibility: greater than 7 mile(s):0
Temperature: 28 F (-2 C)
Windchill: 21 F (-6 C):1
Dew Point: 26 F (-3 C)
Relative Humidity: 92%
Pressure (altimeter): 30.24 in. Hg (1024 hPa)
ob: LIMZ 252220Z AUTO 24005KT 190V260 9999 NCD M02/M03 Q1024
cycle: 22

Station Type Date Time Source
LIMZ TAF 2020/11/25 18:21 UTC NOAA

TAF LIMZ 251700Z 2518/2618 VRB03KT CAVOK

Example: see airport list